Hovedside
METAR-TAF:

METAR-TAF

Lufthavner :

Mosjøen lufthavn. Kjærstad

Mosjøen, Norge

breddegrad: 65-48N, lengdegrad: 013-08E, høyde over havet: 70 m

Gjeldene værobservasjon

Denne rapporten ble laget for 27 minutter siden, klokken 18:50 UTC
Vind 11 kt fra Sør
Temperatur 11°C
Luftfuktighet 82%
Trykk 1018 hPa
Sikt 10 km eller mer
Få skyer i en høyde av 1800 ft
Spredte skyer i en høyde av 4000 ft
Brutte skyer i en høyde av 7000 ft
lett regn

METAR: ENMS 201850Z 19011KT 9999 -RA FEW018 SCT040 BKN070 11/08 Q1018 RMK WIND 412FT 21011KT 180V230

Tid: 21:17 (19:17 UTC)


TAF: fraværende

Værobservasjoner og værvarsel for over 4000 flyplasser (METAR- og TAF-rapporter).

Tilgjengelige stasjoner er representert av de røde og gule prikkene på kartet.

Hold musepekeren over prikken for å se navnet på stasjonen.

Klikk så for å se værobservasjoner og -varsler.

For å forandre kartet kan du klikke på den grønne knappen med svart kryss for å zoome inn, på den grønne knappen med strek for å zoome ut, eller på de grønne pilene for å se tilstøtende kart.


METAR-TAF: